sensor_id;sensor_type;location;lat;lon;timestamp;temperature;humidity
1351;DHT22;669;50.206;9.998;2022-07-19T00:01:24;14.90;42.10
1351;DHT22;669;50.206;9.998;2022-07-19T00:03:52;14.80;42.00
1351;DHT22;669;50.206;9.998;2022-07-19T00:06:23;14.80;42.70
1351;DHT22;669;50.206;9.998;2022-07-19T00:08:52;15.00;43.00
1351;DHT22;669;50.206;9.998;2022-07-19T00:11:20;15.20;42.80
1351;DHT22;669;50.206;9.998;2022-07-19T00:13:48;15.40;42.30
1351;DHT22;669;50.206;9.998;2022-07-19T00:16:17;15.50;42.20
1351;DHT22;669;50.206;9.998;2022-07-19T00:18:45;15.50;42.20
1351;DHT22;669;50.206;9.998;2022-07-19T00:21:13;15.50;42.00
1351;DHT22;669;50.206;9.998;2022-07-19T00:23:44;15.40;41.80
1351;DHT22;669;50.206;9.998;2022-07-19T00:26:23;15.40;41.40
1351;DHT22;669;50.206;9.998;2022-07-19T00:29:19;15.40;41.40
1351;DHT22;669;50.206;9.998;2022-07-19T00:31:47;15.30;41.30
1351;DHT22;669;50.206;9.998;2022-07-19T00:34:15;15.20;42.10
1351;DHT22;669;50.206;9.998;2022-07-19T00:36:43;15.00;42.20
1351;DHT22;669;50.206;9.998;2022-07-19T00:39:13;14.90;42.80
1351;DHT22;669;50.206;9.998;2022-07-19T00:41:41;14.80;42.20
1351;DHT22;669;50.206;9.998;2022-07-19T00:44:10;14.80;42.70
1351;DHT22;669;50.206;9.998;2022-07-19T00:46:38;14.70;43.00
1351;DHT22;669;50.206;9.998;2022-07-19T00:49:06;14.60;42.60
1351;DHT22;669;50.206;9.998;2022-07-19T00:51:37;14.30;43.10
1351;DHT22;669;50.206;9.998;2022-07-19T00:54:08;14.40;44.60
1351;DHT22;669;50.206;9.998;2022-07-19T00:56:38;14.60;44.80
1351;DHT22;669;50.206;9.998;2022-07-19T00:59:08;14.70;44.50
1351;DHT22;669;50.206;9.998;2022-07-19T01:01:37;14.80;43.80
1351;DHT22;669;50.206;9.998;2022-07-19T01:04:07;14.90;43.80
1351;DHT22;669;50.206;9.998;2022-07-19T01:06:35;14.90;43.60
1351;DHT22;669;50.206;9.998;2022-07-19T01:09:04;15.00;42.70
1351;DHT22;669;50.206;9.998;2022-07-19T01:11:32;14.90;42.70
1351;DHT22;669;50.206;9.998;2022-07-19T01:14:02;14.90;42.30
1351;DHT22;669;50.206;9.998;2022-07-19T01:16:32;14.70;42.70
1351;DHT22;669;50.206;9.998;2022-07-19T01:19:00;14.70;42.10
1351;DHT22;669;50.206;9.998;2022-07-19T01:21:29;14.50;42.40
1351;DHT22;669;50.206;9.998;2022-07-19T01:23:59;14.30;42.70
1351;DHT22;669;50.206;9.998;2022-07-19T01:26:27;14.20;44.10
1351;DHT22;669;50.206;9.998;2022-07-19T01:28:56;14.20;43.50
1351;DHT22;669;50.206;9.998;2022-07-19T01:31:24;14.10;44.40
1351;DHT22;669;50.206;9.998;2022-07-19T01:33:53;14.30;44.60
1351;DHT22;669;50.206;9.998;2022-07-19T01:36:21;14.30;43.90
1351;DHT22;669;50.206;9.998;2022-07-19T01:38:54;14.20;43.50
1351;DHT22;669;50.206;9.998;2022-07-19T01:41:22;14.00;44.20
1351;DHT22;669;50.206;9.998;2022-07-19T01:43:50;14.00;44.60
1351;DHT22;669;50.206;9.998;2022-07-19T01:46:21;14.10;44.50
1351;DHT22;669;50.206;9.998;2022-07-19T01:48:52;13.90;44.30
1351;DHT22;669;50.206;9.998;2022-07-19T01:51:20;13.80;44.50
1351;DHT22;669;50.206;9.998;2022-07-19T01:53:48;13.60;44.60
1351;DHT22;669;50.206;9.998;2022-07-19T01:56:18;13.60;44.60
1351;DHT22;669;50.206;9.998;2022-07-19T01:58:46;13.50;44.80
1351;DHT22;669;50.206;9.998;2022-07-19T02:01:15;13.50;45.00
1351;DHT22;669;50.206;9.998;2022-07-19T02:03:43;13.50;45.30
1351;DHT22;669;50.206;9.998;2022-07-19T02:06:12;13.50;45.50
1351;DHT22;669;50.206;9.998;2022-07-19T02:08:41;13.40;45.10
1351;DHT22;669;50.206;9.998;2022-07-19T02:11:09;13.40;46.00
1351;DHT22;669;50.206;9.998;2022-07-19T02:13:57;13.40;46.20
1351;DHT22;669;50.206;9.998;2022-07-19T02:16:28;13.60;45.70
1351;DHT22;669;50.206;9.998;2022-07-19T02:18:57;13.70;46.30
1351;DHT22;669;50.206;9.998;2022-07-19T02:21:40;13.80;46.50
1351;DHT22;669;50.206;9.998;2022-07-19T02:24:08;13.90;45.40
1351;DHT22;669;50.206;9.998;2022-07-19T02:26:36;13.80;44.70
1351;DHT22;669;50.206;9.998;2022-07-19T02:29:08;13.70;44.80
1351;DHT22;669;50.206;9.998;2022-07-19T02:31:37;13.50;45.70
1351;DHT22;669;50.206;9.998;2022-07-19T02:34:05;13.60;46.00
1351;DHT22;669;50.206;9.998;2022-07-19T02:36:33;13.60;45.10
1351;DHT22;669;50.206;9.998;2022-07-19T02:39:01;13.40;45.60
1351;DHT22;669;50.206;9.998;2022-07-19T02:41:31;13.50;45.20
1351;DHT22;669;50.206;9.998;2022-07-19T02:43:59;13.30;45.10
1351;DHT22;669;50.206;9.998;2022-07-19T02:46:29;12.90;45.80
1351;DHT22;669;50.206;9.998;2022-07-19T02:48:57;13.00;47.30
1351;DHT22;669;50.206;9.998;2022-07-19T02:51:25;13.20;46.50
1351;DHT22;669;50.206;9.998;2022-07-19T02:53:53;13.30;46.70
1351;DHT22;669;50.206;9.998;2022-07-19T02:56:21;13.50;45.60
1351;DHT22;669;50.206;9.998;2022-07-19T02:58:49;13.40;45.20
1351;DHT22;669;50.206;9.998;2022-07-19T03:01:46;13.40;45.50
1351;DHT22;669;50.206;9.998;2022-07-19T03:04:16;13.20;45.60
1351;DHT22;669;50.206;9.998;2022-07-19T03:06:51;13.00;46.60
1351;DHT22;669;50.206;9.998;2022-07-19T03:09:22;13.10;47.30
1351;DHT22;669;50.206;9.998;2022-07-19T03:11:50;13.20;47.70
1351;DHT22;669;50.206;9.998;2022-07-19T03:17:41;13.50;47.10
1351;DHT22;669;50.206;9.998;2022-07-19T03:20:10;13.60;46.90
1351;DHT22;669;50.206;9.998;2022-07-19T03:22:38;13.70;45.80
1351;DHT22;669;50.206;9.998;2022-07-19T03:25:21;13.80;45.10
1351;DHT22;669;50.206;9.998;2022-07-19T03:27:52;13.60;45.40
1351;DHT22;669;50.206;9.998;2022-07-19T03:30:21;13.50;44.90
1351;DHT22;669;50.206;9.998;2022-07-19T03:33:24;13.40;45.30
1351;DHT22;669;50.206;9.998;2022-07-19T03:35:56;13.20;45.40
1351;DHT22;669;50.206;9.998;2022-07-19T03:39:40;13.10;46.40
1351;DHT22;669;50.206;9.998;2022-07-19T03:43:21;13.10;46.50
1351;DHT22;669;50.206;9.998;2022-07-19T03:45:50;13.20;48.20
1351;DHT22;669;50.206;9.998;2022-07-19T03:48:20;13.20;47.00
1351;DHT22;669;50.206;9.998;2022-07-19T03:50:49;13.30;47.40
1351;DHT22;669;50.206;9.998;2022-07-19T03:53:17;13.10;47.60
1351;DHT22;669;50.206;9.998;2022-07-19T03:55:46;13.10;47.30
1351;DHT22;669;50.206;9.998;2022-07-19T03:58:14;13.10;46.30
1351;DHT22;669;50.206;9.998;2022-07-19T04:00:42;12.90;47.60
1351;DHT22;669;50.206;9.998;2022-07-19T04:03:12;12.90;48.90
1351;DHT22;669;50.206;9.998;2022-07-19T04:05:41;13.10;48.50
1351;DHT22;669;50.206;9.998;2022-07-19T04:08:10;13.10;47.90
1351;DHT22;669;50.206;9.998;2022-07-19T04:11:03;13.30;47.20
1351;DHT22;669;50.206;9.998;2022-07-19T04:22:21;13.70;46.70
1351;DHT22;669;50.206;9.998;2022-07-19T04:25:06;13.70;47.40
1351;DHT22;669;50.206;9.998;2022-07-19T04:27:48;14.00;47.50
1351;DHT22;669;50.206;9.998;2022-07-19T04:30:44;14.40;47.10
1351;DHT22;669;50.206;9.998;2022-07-19T04:33:13;14.60;47.00
1351;DHT22;669;50.206;9.998;2022-07-19T04:35:43;14.90;46.90
1351;DHT22;669;50.206;9.998;2022-07-19T04:38:15;15.10;46.60
1351;DHT22;669;50.206;9.998;2022-07-19T04:40:43;15.40;46.20
1351;DHT22;669;50.206;9.998;2022-07-19T04:43:11;15.50;45.90
1351;DHT22;669;50.206;9.998;2022-07-19T04:45:39;15.50;46.30
1351;DHT22;669;50.206;9.998;2022-07-19T04:48:08;15.60;47.00
1351;DHT22;669;50.206;9.998;2022-07-19T04:50:36;15.70;47.70
1351;DHT22;669;50.206;9.998;2022-07-19T04:53:06;15.90;48.00
1351;DHT22;669;50.206;9.998;2022-07-19T04:55:36;16.20;47.10
1351;DHT22;669;50.206;9.998;2022-07-19T04:58:04;16.60;47.00
1351;DHT22;669;50.206;9.998;2022-07-19T05:00:32;16.90;47.00
1351;DHT22;669;50.206;9.998;2022-07-19T05:03:00;17.30;46.50
1351;DHT22;669;50.206;9.998;2022-07-19T05:05:28;17.70;45.60
1351;DHT22;669;50.206;9.998;2022-07-19T05:07:56;18.00;44.60
1351;DHT22;669;50.206;9.998;2022-07-19T05:10:27;18.40;43.80
1351;DHT22;669;50.206;9.998;2022-07-19T05:12:56;18.80;42.80
1351;DHT22;669;50.206;9.998;2022-07-19T05:15:24;19.00;41.50
1351;DHT22;669;50.206;9.998;2022-07-19T05:17:51;19.20;40.80
1351;DHT22;669;50.206;9.998;2022-07-19T05:20:20;19.40;40.90
1351;DHT22;669;50.206;9.998;2022-07-19T05:22:47;19.90;40.10
1351;DHT22;669;50.206;9.998;2022-07-19T05:25:16;20.20;39.00
1351;DHT22;669;50.206;9.998;2022-07-19T05:27:44;20.50;39.60
1351;DHT22;669;50.206;9.998;2022-07-19T05:30:13;20.80;38.10
1351;DHT22;669;50.206;9.998;2022-07-19T05:32:42;21.00;37.10
1351;DHT22;669;50.206;9.998;2022-07-19T05:35:10;21.30;37.00
1351;DHT22;669;50.206;9.998;2022-07-19T05:37:37;21.60;36.50
1351;DHT22;669;50.206;9.998;2022-07-19T05:40:06;21.90;35.50
1351;DHT22;669;50.206;9.998;2022-07-19T05:42:35;22.00;36.20
1351;DHT22;669;50.206;9.998;2022-07-19T05:45:03;22.30;36.30
1351;DHT22;669;50.206;9.998;2022-07-19T05:47:33;22.60;34.60
1351;DHT22;669;50.206;9.998;2022-07-19T05:50:01;22.80;34.80
1351;DHT22;669;50.206;9.998;2022-07-19T05:52:29;23.00;34.70
1351;DHT22;669;50.206;9.998;2022-07-19T05:55:04;23.30;34.30
1351;DHT22;669;50.206;9.998;2022-07-19T05:57:32;23.60;34.00
1351;DHT22;669;50.206;9.998;2022-07-19T05:59:59;23.80;33.70
1351;DHT22;669;50.206;9.998;2022-07-19T06:02:28;24.00;33.80
1351;DHT22;669;50.206;9.998;2022-07-19T06:04:57;24.00;33.80
1351;DHT22;669;50.206;9.998;2022-07-19T06:07:25;24.30;34.40
1351;DHT22;669;50.206;9.998;2022-07-19T06:09:53;24.50;34.50
1351;DHT22;669;50.206;9.998;2022-07-19T06:12:21;24.60;32.80
1351;DHT22;669;50.206;9.998;2022-07-19T06:14:49;24.80;31.50
1351;DHT22;669;50.206;9.998;2022-07-19T06:17:17;25.10;31.30
1351;DHT22;669;50.206;9.998;2022-07-19T06:19:45;25.30;29.60
1351;DHT22;669;50.206;9.998;2022-07-19T06:22:14;25.60;29.40
1351;DHT22;669;50.206;9.998;2022-07-19T06:24:42;25.80;28.30
1351;DHT22;669;50.206;9.998;2022-07-19T06:27:10;26.00;27.60
1351;DHT22;669;50.206;9.998;2022-07-19T06:29:38;26.10;27.30
1351;DHT22;669;50.206;9.998;2022-07-19T06:32:05;26.20;27.50
1351;DHT22;669;50.206;9.998;2022-07-19T06:34:33;26.50;26.60
1351;DHT22;669;50.206;9.998;2022-07-19T06:37:01;26.70;25.90
1351;DHT22;669;50.206;9.998;2022-07-19T06:39:30;26.90;26.50
1351;DHT22;669;50.206;9.998;2022-07-19T06:41:58;27.00;26.20
1351;DHT22;669;50.206;9.998;2022-07-19T06:44:26;27.10;26.40
1351;DHT22;669;50.206;9.998;2022-07-19T06:46:54;27.10;25.30
1351;DHT22;669;50.206;9.998;2022-07-19T06:49:22;27.20;25.50
1351;DHT22;669;50.206;9.998;2022-07-19T06:51:50;27.10;24.60
1351;DHT22;669;50.206;9.998;2022-07-19T06:54:18;27.00;25.90
1351;DHT22;669;50.206;9.998;2022-07-19T06:56:47;27.20;25.50
1351;DHT22;669;50.206;9.998;2022-07-19T06:59:15;27.30;25.20
1351;DHT22;669;50.206;9.998;2022-07-19T07:01:43;27.40;25.60
1351;DHT22;669;50.206;9.998;2022-07-19T07:04:11;27.80;24.80
1351;DHT22;669;50.206;9.998;2022-07-19T07:06:38;27.80;26.80
1351;DHT22;669;50.206;9.998;2022-07-19T07:09:06;27.90;25.40
1351;DHT22;669;50.206;9.998;2022-07-19T07:11:34;28.10;25.20
1351;DHT22;669;50.206;9.998;2022-07-19T07:14:04;28.50;24.50
1351;DHT22;669;50.206;9.998;2022-07-19T07:16:32;28.40;23.90
1351;DHT22;669;50.206;9.998;2022-07-19T07:19:00;28.60;25.00
1351;DHT22;669;50.206;9.998;2022-07-19T07:21:28;28.70;24.60
1351;DHT22;669;50.206;9.998;2022-07-19T07:23:57;28.90;24.40
1351;DHT22;669;50.206;9.998;2022-07-19T07:26:25;29.00;24.10
1351;DHT22;669;50.206;9.998;2022-07-19T07:28:53;29.20;24.50
1351;DHT22;669;50.206;9.998;2022-07-19T07:31:23;29.20;23.70
1351;DHT22;669;50.206;9.998;2022-07-19T07:33:51;29.30;23.40
1351;DHT22;669;50.206;9.998;2022-07-19T07:36:19;29.50;23.30
1351;DHT22;669;50.206;9.998;2022-07-19T07:38:47;29.90;22.50
1351;DHT22;669;50.206;9.998;2022-07-19T07:41:15;30.10;24.10
1351;DHT22;669;50.206;9.998;2022-07-19T07:44:03;30.20;23.70
1351;DHT22;669;50.206;9.998;2022-07-19T07:46:32;30.50;23.10
1351;DHT22;669;50.206;9.998;2022-07-19T07:49:00;30.80;23.40
1351;DHT22;669;50.206;9.998;2022-07-19T07:51:33;30.80;21.70
1351;DHT22;669;50.206;9.998;2022-07-19T07:54:11;30.70;22.40
1351;DHT22;669;50.206;9.998;2022-07-19T07:56:40;30.60;21.40
1351;DHT22;669;50.206;9.998;2022-07-19T07:59:08;30.70;23.10
1351;DHT22;669;50.206;9.998;2022-07-19T08:01:37;30.90;21.80
1351;DHT22;669;50.206;9.998;2022-07-19T08:04:06;31.20;22.80
1351;DHT22;669;50.206;9.998;2022-07-19T08:06:34;31.40;22.10
1351;DHT22;669;50.206;9.998;2022-07-19T08:09:03;31.60;22.10
1351;DHT22;669;50.206;9.998;2022-07-19T08:11:31;31.60;21.20
1351;DHT22;669;50.206;9.998;2022-07-19T08:14:00;31.80;21.30
1351;DHT22;669;50.206;9.998;2022-07-19T08:16:28;32.20;20.40
1351;DHT22;669;50.206;9.998;2022-07-19T08:18:57;32.50;21.50
1351;DHT22;669;50.206;9.998;2022-07-19T08:21:25;32.60;20.60
1351;DHT22;669;50.206;9.998;2022-07-19T08:23:53;32.90;20.10
1351;DHT22;669;50.206;9.998;2022-07-19T08:26:21;33.20;19.50
1351;DHT22;669;50.206;9.998;2022-07-19T08:28:49;33.10;19.90
1351;DHT22;669;50.206;9.998;2022-07-19T08:31:17;33.00;20.50
1351;DHT22;669;50.206;9.998;2022-07-19T08:33:45;33.30;19.40
1351;DHT22;669;50.206;9.998;2022-07-19T08:36:14;33.30;19.40
1351;DHT22;669;50.206;9.998;2022-07-19T08:38:42;33.30;19.30
1351;DHT22;669;50.206;9.998;2022-07-19T08:41:10;33.70;18.80
1351;DHT22;669;50.206;9.998;2022-07-19T08:43:39;33.90;19.50
1351;DHT22;669;50.206;9.998;2022-07-19T08:46:07;34.00;18.50
1351;DHT22;669;50.206;9.998;2022-07-19T08:48:36;33.80;19.50
1351;DHT22;669;50.206;9.998;2022-07-19T08:51:17;33.80;18.90
1351;DHT22;669;50.206;9.998;2022-07-19T08:53:45;34.00;19.60
1351;DHT22;669;50.206;9.998;2022-07-19T08:56:13;34.30;18.60
1351;DHT22;669;50.206;9.998;2022-07-19T08:58:58;34.40;17.50
1351;DHT22;669;50.206;9.998;2022-07-19T09:01:26;34.50;18.10
1351;DHT22;669;50.206;9.998;2022-07-19T09:04:09;34.70;17.70
1351;DHT22;669;50.206;9.998;2022-07-19T09:06:42;35.10;17.00
1351;DHT22;669;50.206;9.998;2022-07-19T09:09:11;35.50;16.30
1351;DHT22;669;50.206;9.998;2022-07-19T09:11:40;35.50;16.60
1351;DHT22;669;50.206;9.998;2022-07-19T09:14:16;35.30;16.90
1351;DHT22;669;50.206;9.998;2022-07-19T09:16:59;35.60;16.20
1351;DHT22;669;50.206;9.998;2022-07-19T09:19:33;35.80;17.90
1351;DHT22;669;50.206;9.998;2022-07-19T09:22:06;35.60;17.80
1351;DHT22;669;50.206;9.998;2022-07-19T09:24:36;35.80;17.60
1351;DHT22;669;50.206;9.998;2022-07-19T09:27:06;35.80;17.40
1351;DHT22;669;50.206;9.998;2022-07-19T09:29:36;35.80;19.00
1351;DHT22;669;50.206;9.998;2022-07-19T09:32:07;36.00;17.10
1351;DHT22;669;50.206;9.998;2022-07-19T09:34:37;36.00;16.90
1351;DHT22;669;50.206;9.998;2022-07-19T09:37:15;36.20;17.10
1351;DHT22;669;50.206;9.998;2022-07-19T09:39:55;36.20;17.00
1351;DHT22;669;50.206;9.998;2022-07-19T09:42:33;36.40;17.50
1351;DHT22;669;50.206;9.998;2022-07-19T09:45:04;36.20;16.50
1351;DHT22;669;50.206;9.998;2022-07-19T09:47:33;36.20;15.50
1351;DHT22;669;50.206;9.998;2022-07-19T09:50:03;36.00;16.90
1351;DHT22;669;50.206;9.998;2022-07-19T09:52:33;36.10;18.90
1351;DHT22;669;50.206;9.998;2022-07-19T09:55:12;36.20;15.60
1351;DHT22;669;50.206;9.998;2022-07-19T09:57:42;36.40;16.60
1351;DHT22;669;50.206;9.998;2022-07-19T10:00:12;36.50;15.00
1351;DHT22;669;50.206;9.998;2022-07-19T10:02:42;36.60;15.00
1351;DHT22;669;50.206;9.998;2022-07-19T10:05:11;36.20;16.20
1351;DHT22;669;50.206;9.998;2022-07-19T10:07:40;36.20;15.20
1351;DHT22;669;50.206;9.998;2022-07-19T10:10:12;36.00;15.10
1351;DHT22;669;50.206;9.998;2022-07-19T10:12:43;35.80;15.40
1351;DHT22;669;50.206;9.998;2022-07-19T10:15:13;35.80;15.00
1351;DHT22;669;50.206;9.998;2022-07-19T10:17:50;36.40;13.00
1351;DHT22;669;50.206;9.998;2022-07-19T10:20:22;37.10;12.70
1351;DHT22;669;50.206;9.998;2022-07-19T10:22:51;37.40;12.10
1351;DHT22;669;50.206;9.998;2022-07-19T10:25:21;37.10;11.60
1351;DHT22;669;50.206;9.998;2022-07-19T10:27:52;37.20;11.90
1351;DHT22;669;50.206;9.998;2022-07-19T10:30:38;37.40;11.50
1351;DHT22;669;50.206;9.998;2022-07-19T10:33:29;37.20;12.60
1351;DHT22;669;50.206;9.998;2022-07-19T10:39:28;37.60;11.20
1351;DHT22;669;50.206;9.998;2022-07-19T10:42:15;37.00;13.00
1351;DHT22;669;50.206;9.998;2022-07-19T10:45:12;37.10;11.80
1351;DHT22;669;50.206;9.998;2022-07-19T10:48:04;37.60;11.30
1351;DHT22;669;50.206;9.998;2022-07-19T10:50:43;37.90;10.70
1351;DHT22;669;50.206;9.998;2022-07-19T10:56:24;37.20;11.80
1351;DHT22;669;50.206;9.998;2022-07-19T10:58:54;37.00;11.60
1351;DHT22;669;50.206;9.998;2022-07-19T11:01:24;37.30;11.50
1351;DHT22;669;50.206;9.998;2022-07-19T11:03:54;37.30;11.90
1351;DHT22;669;50.206;9.998;2022-07-19T11:06:24;37.80;10.80
1351;DHT22;669;50.206;9.998;2022-07-19T11:08:55;38.00;10.30
1351;DHT22;669;50.206;9.998;2022-07-19T11:11:25;37.80;11.30
1351;DHT22;669;50.206;9.998;2022-07-19T11:13:55;37.90;10.90
1351;DHT22;669;50.206;9.998;2022-07-19T11:16:25;37.90;10.80
1351;DHT22;669;50.206;9.998;2022-07-19T11:19:02;37.90;10.60
1351;DHT22;669;50.206;9.998;2022-07-19T11:21:31;37.90;10.80
1351;DHT22;669;50.206;9.998;2022-07-19T11:24:03;38.10;10.50
1351;DHT22;669;50.206;9.998;2022-07-19T11:26:37;38.40;9.80
1351;DHT22;669;50.206;9.998;2022-07-19T11:29:13;38.60;9.50
1351;DHT22;669;50.206;9.998;2022-07-19T11:31:45;38.30;10.00
1351;DHT22;669;50.206;9.998;2022-07-19T11:34:14;38.20;10.30
1351;DHT22;669;50.206;9.998;2022-07-19T11:36:42;37.70;9.90
1351;DHT22;669;50.206;9.998;2022-07-19T11:39:10;37.80;10.20
1351;DHT22;669;50.206;9.998;2022-07-19T11:41:44;38.00;9.50
1351;DHT22;669;50.206;9.998;2022-07-19T11:44:12;38.10;10.70
1351;DHT22;669;50.206;9.998;2022-07-19T11:46:40;38.20;11.60
1351;DHT22;669;50.206;9.998;2022-07-19T11:49:10;38.10;10.80
1351;DHT22;669;50.206;9.998;2022-07-19T11:51:40;38.40;13.00
1351;DHT22;669;50.206;9.998;2022-07-19T11:54:08;38.50;10.40
1351;DHT22;669;50.206;9.998;2022-07-19T11:56:36;38.70;10.70
1351;DHT22;669;50.206;9.998;2022-07-19T11:59:07;39.00;9.50
1351;DHT22;669;50.206;9.998;2022-07-19T12:01:36;38.20;10.30
1351;DHT22;669;50.206;9.998;2022-07-19T12:04:07;38.10;10.60
1351;DHT22;669;50.206;9.998;2022-07-19T12:06:37;37.60;11.40
1351;DHT22;669;50.206;9.998;2022-07-19T12:09:06;37.70;11.50
1351;DHT22;669;50.206;9.998;2022-07-19T12:11:39;37.60;11.60
1351;DHT22;669;50.206;9.998;2022-07-19T12:14:20;37.40;12.10
1351;DHT22;669;50.206;9.998;2022-07-19T12:16:50;37.30;12.90
1351;DHT22;669;50.206;9.998;2022-07-19T12:19:18;37.10;12.90
1351;DHT22;669;50.206;9.998;2022-07-19T12:21:47;37.20;12.10
1351;DHT22;669;50.206;9.998;2022-07-19T12:24:19;37.00;12.30
1351;DHT22;669;50.206;9.998;2022-07-19T12:27:00;37.20;12.70
1351;DHT22;669;50.206;9.998;2022-07-19T12:29:32;37.70;13.50
1351;DHT22;669;50.206;9.998;2022-07-19T12:32:03;38.00;11.50
1351;DHT22;669;50.206;9.998;2022-07-19T12:34:44;38.70;10.40
1351;DHT22;669;50.206;9.998;2022-07-19T12:37:20;38.90;10.80
1351;DHT22;669;50.206;9.998;2022-07-19T12:40:00;38.10;11.80
1351;DHT22;669;50.206;9.998;2022-07-19T12:42:39;38.10;11.50
1351;DHT22;669;50.206;9.998;2022-07-19T12:45:10;38.20;12.00
1351;DHT22;669;50.206;9.998;2022-07-19T12:47:39;38.50;11.40
1351;DHT22;669;50.206;9.998;2022-07-19T12:50:08;38.70;10.90
1351;DHT22;669;50.206;9.998;2022-07-19T12:52:39;38.50;11.00
1351;DHT22;669;50.206;9.998;2022-07-19T12:55:07;38.30;10.80
1351;DHT22;669;50.206;9.998;2022-07-19T12:57:44;38.60;9.70
1351;DHT22;669;50.206;9.998;2022-07-19T13:00:14;38.60;10.00
1351;DHT22;669;50.206;9.998;2022-07-19T13:02:42;38.40;10.60
1351;DHT22;669;50.206;9.998;2022-07-19T13:05:12;38.80;10.00
1351;DHT22;669;50.206;9.998;2022-07-19T13:07:40;39.70;9.20
1351;DHT22;669;50.206;9.998;2022-07-19T13:10:09;40.20;8.70
1351;DHT22;669;50.206;9.998;2022-07-19T13:12:39;39.90;8.50
1351;DHT22;669;50.206;9.998;2022-07-19T13:15:08;39.20;9.40
1351;DHT22;669;50.206;9.998;2022-07-19T13:17:38;39.40;9.20
1351;DHT22;669;50.206;9.998;2022-07-19T13:20:07;39.40;10.10
1351;DHT22;669;50.206;9.998;2022-07-19T13:22:35;38.80;10.60
1351;DHT22;669;50.206;9.998;2022-07-19T13:25:05;38.80;11.60
1351;DHT22;669;50.206;9.998;2022-07-19T13:27:53;38.90;9.50
1351;DHT22;669;50.206;9.998;2022-07-19T13:30:21;39.40;8.40
1351;DHT22;669;50.206;9.998;2022-07-19T13:32:51;39.40;9.70
1351;DHT22;669;50.206;9.998;2022-07-19T13:35:19;39.20;9.40
1351;DHT22;669;50.206;9.998;2022-07-19T13:37:47;38.70;11.60
1351;DHT22;669;50.206;9.998;2022-07-19T13:40:15;38.50;10.70
1351;DHT22;669;50.206;9.998;2022-07-19T13:42:43;38.30;10.10
1351;DHT22;669;50.206;9.998;2022-07-19T13:45:11;38.10;8.90
1351;DHT22;669;50.206;9.998;2022-07-19T13:47:39;37.90;9.70
1351;DHT22;669;50.206;9.998;2022-07-19T13:50:09;38.40;9.10
1351;DHT22;669;50.206;9.998;2022-07-19T13:52:37;38.50;8.50
1351;DHT22;669;50.206;9.998;2022-07-19T13:55:06;38.40;9.30
1351;DHT22;669;50.206;9.998;2022-07-19T13:57:34;38.00;11.00
1351;DHT22;669;50.206;9.998;2022-07-19T14:00:03;37.80;9.50
1351;DHT22;669;50.206;9.998;2022-07-19T14:02:33;38.10;9.70
1351;DHT22;669;50.206;9.998;2022-07-19T14:05:01;38.50;8.80
1351;DHT22;669;50.206;9.998;2022-07-19T14:07:31;38.60;9.30
1351;DHT22;669;50.206;9.998;2022-07-19T14:09:58;38.60;9.10
1351;DHT22;669;50.206;9.998;2022-07-19T14:12:27;38.70;9.40
1351;DHT22;669;50.206;9.998;2022-07-19T14:14:54;39.00;9.00
1351;DHT22;669;50.206;9.998;2022-07-19T14:17:28;38.80;9.90
1351;DHT22;669;50.206;9.998;2022-07-19T14:19:56;37.90;9.70
1351;DHT22;669;50.206;9.998;2022-07-19T14:22:24;37.50;10.50
1351;DHT22;669;50.206;9.998;2022-07-19T14:24:54;37.40;9.70
1351;DHT22;669;50.206;9.998;2022-07-19T14:27:21;37.10;8.40
1351;DHT22;669;50.206;9.998;2022-07-19T14:29:49;36.70;9.50
1351;DHT22;669;50.206;9.998;2022-07-19T14:32:18;36.80;9.70
1351;DHT22;669;50.206;9.998;2022-07-19T14:34:46;36.80;8.90
1351;DHT22;669;50.206;9.998;2022-07-19T14:37:14;36.80;9.20
1351;DHT22;669;50.206;9.998;2022-07-19T14:39:42;36.60;9.20
1351;DHT22;669;50.206;9.998;2022-07-19T14:42:11;36.70;9.20
1351;DHT22;669;50.206;9.998;2022-07-19T14:44:39;36.90;8.70
1351;DHT22;669;50.206;9.998;2022-07-19T14:47:07;36.70;9.00
1351;DHT22;669;50.206;9.998;2022-07-19T14:49:36;36.40;8.90
1351;DHT22;669;50.206;9.998;2022-07-19T14:52:05;36.10;8.90
1351;DHT22;669;50.206;9.998;2022-07-19T14:54:33;35.80;9.60
1351;DHT22;669;50.206;9.998;2022-07-19T14:57:01;35.70;9.60
1351;DHT22;669;50.206;9.998;2022-07-19T14:59:30;35.70;9.30
1351;DHT22;669;50.206;9.998;2022-07-19T15:01:58;35.50;9.10
1351;DHT22;669;50.206;9.998;2022-07-19T15:04:26;35.40;9.50
1351;DHT22;669;50.206;9.998;2022-07-19T15:06:54;35.30;9.30
1351;DHT22;669;50.206;9.998;2022-07-19T15:09:24;35.20;9.90
1351;DHT22;669;50.206;9.998;2022-07-19T15:11:52;34.90;10.30
1351;DHT22;669;50.206;9.998;2022-07-19T15:14:20;34.70;11.50
1351;DHT22;669;50.206;9.998;2022-07-19T15:16:49;34.60;11.80
1351;DHT22;669;50.206;9.998;2022-07-19T15:19:17;34.50;12.10
1351;DHT22;669;50.206;9.998;2022-07-19T15:21:45;34.40;11.40
1351;DHT22;669;50.206;9.998;2022-07-19T15:24:13;34.30;10.20
1351;DHT22;669;50.206;9.998;2022-07-19T15:26:41;34.30;10.20
1351;DHT22;669;50.206;9.998;2022-07-19T15:29:09;34.30;10.30
1351;DHT22;669;50.206;9.998;2022-07-19T15:31:38;34.30;10.50
1351;DHT22;669;50.206;9.998;2022-07-19T15:34:07;34.20;10.80
1351;DHT22;669;50.206;9.998;2022-07-19T15:36:36;34.10;12.30
1351;DHT22;669;50.206;9.998;2022-07-19T15:39:04;34.10;12.50
1351;DHT22;669;50.206;9.998;2022-07-19T15:41:33;34.00;15.20
1351;DHT22;669;50.206;9.998;2022-07-19T15:44:01;33.90;12.70
1351;DHT22;669;50.206;9.998;2022-07-19T15:46:30;33.90;11.30
1351;DHT22;669;50.206;9.998;2022-07-19T15:49:02;33.80;10.90
1351;DHT22;669;50.206;9.998;2022-07-19T15:51:33;33.80;10.70
1351;DHT22;669;50.206;9.998;2022-07-19T15:54:01;33.70;13.00
1351;DHT22;669;50.206;9.998;2022-07-19T15:56:29;33.80;10.50
1351;DHT22;669;50.206;9.998;2022-07-19T15:58:56;33.70;12.80
1351;DHT22;669;50.206;9.998;2022-07-19T16:01:24;33.60;10.00
1351;DHT22;669;50.206;9.998;2022-07-19T16:03:53;33.60;10.30
1351;DHT22;669;50.206;9.998;2022-07-19T16:06:20;33.60;11.30
1351;DHT22;669;50.206;9.998;2022-07-19T16:08:51;33.40;12.10
1351;DHT22;669;50.206;9.998;2022-07-19T16:11:19;33.40;11.60
1351;DHT22;669;50.206;9.998;2022-07-19T16:13:47;33.40;11.10
1351;DHT22;669;50.206;9.998;2022-07-19T16:16:15;33.40;12.70
1351;DHT22;669;50.206;9.998;2022-07-19T16:18:44;33.30;12.90
1351;DHT22;669;50.206;9.998;2022-07-19T16:21:12;33.20;12.40
1351;DHT22;669;50.206;9.998;2022-07-19T16:23:40;33.10;12.00
1351;DHT22;669;50.206;9.998;2022-07-19T16:26:10;33.00;12.90
1351;DHT22;669;50.206;9.998;2022-07-19T16:28:38;33.00;12.40
1351;DHT22;669;50.206;9.998;2022-07-19T16:31:06;32.90;12.80
1351;DHT22;669;50.206;9.998;2022-07-19T16:33:34;32.80;12.50
1351;DHT22;669;50.206;9.998;2022-07-19T16:36:02;32.80;12.20
1351;DHT22;669;50.206;9.998;2022-07-19T16:38:30;32.80;12.70
1351;DHT22;669;50.206;9.998;2022-07-19T16:40:58;32.80;12.60
1351;DHT22;669;50.206;9.998;2022-07-19T16:43:28;32.70;13.80
1351;DHT22;669;50.206;9.998;2022-07-19T16:45:56;32.60;13.40
1351;DHT22;669;50.206;9.998;2022-07-19T16:48:29;32.60;13.40
1351;DHT22;669;50.206;9.998;2022-07-19T16:50:56;32.70;13.40
1351;DHT22;669;50.206;9.998;2022-07-19T16:53:24;32.70;13.40
1351;DHT22;669;50.206;9.998;2022-07-19T16:55:52;32.60;13.40
1351;DHT22;669;50.206;9.998;2022-07-19T16:58:20;32.50;12.60
1351;DHT22;669;50.206;9.998;2022-07-19T17:00:50;32.50;13.30